• Join FlightAware (Why Join?)
  • Login
  • US Flag 
12:24AM EDT


 

Airport Tracker/Info


-or-


 

Live Flight TrackerFlight Track Log ✈ BLF729 ✈ 24-Apr-2013 ✈ EFHK / HEL - ESSA / ARN

Flight Track Log - Related Links

Times and Time Zones

All times are in EDT time to prevent confusion due to time zone crossing. See the BLF729 flight status page for this flight to view local times or setup timezone preferences in your user account.

Time Position Orientation Groundspeed Altitude Reporting Facility
EDT Latitude Longitude Course Direction KTS MPH feet Rate Location/Type
03:03PM 60.2762 24.3660 262° West  Level Estimated
03:04PM 60.2620 24.1673 262° West  Level Estimated
03:05PM 60.2474 23.9687 262° West  Level Estimated
03:06PM 60.2326 23.7703 262° West  Level Estimated
03:07PM 60.2174 23.5720 261° West  Level Estimated
03:08PM 60.2020 23.3740 261° West  Level Estimated
03:09PM 60.1862 23.1761 261° West  Level Estimated
03:10PM 60.1702 22.9785 261° West  Level Estimated
03:11PM 60.1539 22.7810 261° West  Level Estimated
03:12PM 60.1372 22.5837 260° West  Level Estimated
03:13PM 60.1203 22.3867 260° West  Level Estimated
03:14PM 60.1031 22.1898 260° West  Level Estimated
03:15PM 60.0856 21.9932 260° West  Level Estimated
03:16PM 60.0678 21.7967 260° West  Level Estimated
03:17PM 60.0498 21.6005 260° West  Level Estimated
03:18PM 60.0314 21.4045 259° West  Level Estimated
03:19PM 60.0127 21.2087 259° West  Level Estimated
03:20PM 59.9938 21.0131 259° West  Level Estimated
03:21PM 59.9745 20.8177 259° West  Level Estimated
03:22PM 59.9550 20.6226 259° West  Level Estimated
03:23PM 59.9352 20.4277 259° West  Level Estimated
03:24PM 59.9151 20.2331 258° West  Level Estimated
03:25PM 59.8947 20.0387 258° West  Level Estimated
03:26PM 59.8740 19.8445 258° West  Level Estimated
03:27PM 59.8531 19.6506 258° West  Level Estimated
03:28PM 59.8318 19.4569 258° West  Level Estimated
03:29PM 59.8103 19.2634 258° West  Level Estimated
03:30PM 59.7885 19.0702 257° West  Level Estimated
03:31PM 59.7664 18.8773 257° West  Level Estimated
03:32PM 59.7440 18.6846 257° West  Level Estimated
03:33PM 59.7213 18.4922 257° West  Level Estimated
03:34PM 59.6984 18.3000 257° West  Level Estimated
03:35PM 59.6752 18.1082 257° West  Level Estimated
03:36PM 59.6519 17.9186 256° West  Level Estimated
03:37PM 59.6519 17.9186 North  Level Estimated
03:38PM 59.6519 17.9186 North  Level Estimated
03:39PM 59.6519 17.9186 North  Level Estimated
03:40PM 59.6519 17.9186 North  Level Estimated
03:41PM 59.6519 17.9186 North  Level Estimated
03:42PM 59.6519 17.9186 North  Level Estimated
03:43PM 59.6519 17.9186 North  Level Estimated
03:44PM 59.6519 17.9186 North  Level Estimated
03:45PM 59.6519 17.9186 North  Level Estimated
03:46PM 59.6519 17.9186 North  Level Estimated
03:47PM 59.6519 17.9186 North  Level Estimated
03:48PM 59.6519 17.9186 North  Level Estimated
03:49PM 59.6519 17.9186 North  Level Estimated
03:50PM 59.6519 17.9186 North  Level Estimated
03:51PM 59.6519 17.9186 North  Level Estimated